デンパサール の空港の天気 - METARとTAF

デンパサール国際空港 ( WADD / DPS ) - インドネシア バリ島デンパサール
飛行場実況気象(Metar)
観測時間12/02 07:00 WITA (12/01 23:00 UTC)
風向・風速不定 1m/s
視程10km以上
天気現象
少しの雲 雲底高度 490m
気温25℃
湿度83%
気圧1009hPa
METARWADD 012300Z VRB01KT 9999 FEW016 25/22 Q1009 NOSIG
過去の天気等 Google飛行場航空写真 Wunderground天気予報

過去48時間のMETAR

飛行場予報(TAF)
発表時間: 12/02 01:00 WITA (12/01 17:00 UTC)
予報対象時間: 2日2時 WITA ~ 3日2時 WITA
風向・風速不定 2m/s
視程10km以上
全天の4割程度の雲 雲底高度 490m
2日4時 WITA ~ 2日8時 WITA に一時的に
視程5000m
天気現象
少しの積乱雲 雲底高度 460m
全天の8割程度の雲 雲底高度 460m
2日8時 WITA ~ 2日10時 WITA に徐々に
風向・風速西南西 3m/s
TAF WADD 011700Z 0118/0218 VRB03KT 9999 SCT016
TEMPO 0120/0200 5000 RA FEW015CB BKN015
BECMG 0200/0202 25006KT